Time;durP1;ratioP1;P1;durP2;ratioP2;P2;SDS_P1;SDS_P2;PMS_P1;PMS_P2;Temp;Humidity;BMP_temperature;BMP_pressure;BME280_temperature;BME280_humidity;BME280_pressure;Samples;Min_cycle;Max_cycle;Signal;HPM_P1;HPM_P2
2022/04/23 00:00:35;;;;;;;10.63;7.45;;;;;;;;;;5009113;28;20060;-63
2022/04/23 00:03:01;;;;;;;9.25;5.95;;;;;;;;;;5025834;28;20046;-63
2022/04/23 00:05:28;;;;;;;10.60;6.85;;;;;;;;;;5038774;28;20045;-62
2022/04/23 00:07:54;;;;;;;9.23;6.65;;;;;;;;;;5026744;28;20046;-62
2022/04/23 00:10:22;;;;;;;14.20;7.35;;;;;;;;;;5026839;28;20054;-62
2022/04/23 00:12:48;;;;;;;7.93;6.72;;;;;;;;;;5026908;28;20042;-62
2022/04/23 00:15:14;;;;;;;13.15;8.27;;;;;;;;;;5008644;28;20049;-62
2022/04/23 00:17:43;;;;;;;16.77;7.57;;;;;;;;;;5026539;28;20144;-63
2022/04/23 00:20:11;;;;;;;18.77;8.50;;;;;;;;;;5026633;28;20056;-62
2022/04/23 00:22:37;;;;;;;12.00;7.60;;;;;;;;;;5026213;28;20042;-62
2022/04/23 00:25:04;;;;;;;12.82;8.02;;;;;;;;;;5026553;28;20518;-62
2022/04/23 00:27:30;;;;;;;12.80;7.55;;;;;;;;;;5026415;28;20041;-62
2022/04/23 00:29:56;;;;;;;14.65;7.28;;;;;;;;;;5026352;28;20073;-61
2022/04/23 00:32:22;;;;;;;14.00;8.75;;;;;;;;;;5007895;28;20072;-63
2022/04/23 00:34:49;;;;;;;15.95;7.82;;;;;;;;;;5025294;28;20038;-62
2022/04/23 00:37:15;;;;;;;13.02;7.40;;;;;;;;;;5026394;28;20140;-62
2022/04/23 00:39:41;;;;;;;12.25;8.23;;;;;;;;;;5007888;28;20058;-62
2022/04/23 00:42:09;;;;;;;17.33;9.30;;;;;;;;;;5006245;28;20383;-62
2022/04/23 00:44:36;;;;;;;12.18;8.18;;;;;;;;;;5006592;28;20439;-62
2022/04/23 00:47:02;;;;;;;12.10;6.33;;;;;;;;;;5006432;28;20125;-62
2022/04/23 00:49:28;;;;;;;12.93;9.48;;;;;;;;;;5006322;28;20046;-62
2022/04/23 00:51:54;;;;;;;23.20;9.25;;;;;;;;;;5006131;28;20046;-61
2022/04/23 00:54:22;;;;;;;19.45;9.15;;;;;;;;;;5006540;28;20073;-62
2022/04/23 00:56:48;;;;;;;11.18;6.57;;;;;;;;;;5006440;28;20042;-62
2022/04/23 00:59:14;;;;;;;15.55;8.23;;;;;;;;;;4988782;28;20054;-62
2022/04/23 01:01:42;;;;;;;10.30;6.95;;;;;;;;;;5005837;28;20184;-62
2022/04/23 01:04:08;;;;;;;;;;;;;;;;;;5006623;28;20046;-62
2022/04/23 01:06:35;;;;;;;9.32;6.60;;;;;;;;;;5006149;28;19965;-62
2022/04/23 01:09:03;;;;;;;11.43;7.43;;;;;;;;;;4992702;28;20046;-62
2022/04/23 01:11:29;;;;;;;16.60;8.75;;;;;;;;;;4989343;28;20122;-61
2022/04/23 01:13:56;;;;;;;12.88;7.30;;;;;;;;;;5006087;28;20110;-61
2022/04/23 01:16:22;;;;;;;12.15;7.47;;;;;;;;;;5005948;28;20053;-62
2022/04/23 01:18:48;;;;;;;12.60;8.32;;;;;;;;;;5006067;28;20046;-62
2022/04/23 01:21:14;;;;;;;8.48;6.68;;;;;;;;;;5005709;28;20046;-62
2022/04/23 01:23:44;;;;;;;16.77;9.20;;;;;;;;;;5001577;28;20124;-62
2022/04/23 01:26:10;;;;;;;15.65;9.50;;;;;;;;;;5005811;28;20050;-62
2022/04/23 01:28:37;;;;;;;19.08;8.93;;;;;;;;;;5005800;28;20506;-62
2022/04/23 01:31:04;;;;;;;13.80;7.90;;;;;;;;;;5005304;28;20057;-62
2022/04/23 01:33:32;;;;;;;13.77;8.50;;;;;;;;;;5005637;28;20046;-62
2022/04/23 01:35:58;;;;;;;13.50;9.73;;;;;;;;;;5005637;28;20049;-62
2022/04/23 01:38:24;;;;;;;12.75;9.77;;;;;;;;;;5011740;28;20064;-62
2022/04/23 01:40:50;;;;;;;19.17;11.10;;;;;;;;;;5025481;28;20065;-62
2022/04/23 01:43:16;;;;;;;15.25;8.70;;;;;;;;;;5025009;28;20050;-62
2022/04/23 01:45:44;;;;;;;17.92;10.13;;;;;;;;;;5025088;28;20049;-62
2022/04/23 01:48:10;;;;;;;12.57;8.45;;;;;;;;;;5025249;28;20046;-62
2022/04/23 01:50:37;;;;;;;14.40;10.38;;;;;;;;;;5025219;28;20049;-62
2022/04/23 01:53:03;;;;;;;11.63;7.82;;;;;;;;;;5007287;28;20084;-62
2022/04/23 01:55:33;;;;;;;16.50;10.73;;;;;;;;;;5025248;28;20050;-61
2022/04/23 01:57:59;;;;;;;18.23;10.00;;;;;;;;;;5024924;28;20049;-62
2022/04/23 02:00:26;;;;;;;17.85;8.82;;;;;;;;;;5024928;28;20056;-62
2022/04/23 02:02:52;;;;;;;16.67;10.13;;;;;;;;;;5024676;28;20057;-61
2022/04/23 02:05:18;;;;;;;15.57;9.02;;;;;;;;;;5025232;28;20050;-61
2022/04/23 02:07:45;;;;;;;16.58;10.77;;;;;;;;;;5024904;28;20050;-62
2022/04/23 02:10:12;;;;;;;16.55;10.95;;;;;;;;;;5024941;28;20064;-61
2022/04/23 02:12:38;;;;;;;18.30;10.95;;;;;;;;;;5024537;28;20151;-62
2022/04/23 02:15:07;;;;;;;16.08;11.13;;;;;;;;;;5024739;28;20080;-62
2022/04/23 02:17:37;;;;;;;16.30;11.80;;;;;;;;;;5024698;28;20046;-62
2022/04/23 02:20:11;;;;;;;16.42;11.43;;;;;;;;;;5007126;28;20062;-61
2022/04/23 02:22:37;;;;;;;15.48;9.32;;;;;;;;;;5024604;28;20061;-62
2022/04/23 02:25:05;;;;;;;19.17;11.65;;;;;;;;;;5006755;28;20045;-62
2022/04/23 02:27:42;;;;;;;19.10;11.73;;;;;;;;;;5024623;28;20053;-62
2022/04/23 02:30:08;;;;;;;19.75;12.07;;;;;;;;;;5024565;28;20053;-62
2022/04/23 02:32:34;;;;;;;20.23;11.88;;;;;;;;;;5024128;28;20041;-62
2022/04/23 02:35:00;;;;;;;15.20;9.70;;;;;;;;;;5024573;28;20092;-62
2022/04/23 02:37:34;;;;;;;16.73;12.55;;;;;;;;;;5024657;28;20042;-62
2022/04/23 02:40:01;;;;;;;19.55;11.50;;;;;;;;;;5024272;28;20061;-62
2022/04/23 02:42:27;;;;;;;17.23;12.50;;;;;;;;;;5024269;28;20045;-62
2022/04/23 02:44:53;;;;;;;14.15;11.32;;;;;;;;;;5024155;28;20053;-62
2022/04/23 02:47:19;;;;;;;15.98;11.85;;;;;;;;;;5024368;28;20123;-62
2022/04/23 02:49:46;;;;;;;18.80;12.32;;;;;;;;;;5024560;28;20045;-62
2022/04/23 02:52:12;;;;;;;14.35;8.65;;;;;;;;;;5024156;28;20516;-62
2022/04/23 02:54:38;;;;;;;17.15;11.70;;;;;;;;;;5006481;28;20129;-62
2022/04/23 02:57:04;;;;;;;19.20;13.18;;;;;;;;;;5025406;28;20168;-62
2022/04/23 02:59:31;;;;;;;16.10;12.05;;;;;;;;;;5010369;28;20075;-62
2022/04/23 03:01:57;;;;;;;16.83;9.82;;;;;;;;;;5027743;28;20404;-63
2022/04/23 03:04:23;;;;;;;19.65;11.48;;;;;;;;;;5010299;28;20058;-61
2022/04/23 03:06:49;;;;;;;20.67;12.05;;;;;;;;;;5028268;28;20045;-63
2022/04/23 03:09:15;;;;;;;13.85;8.88;;;;;;;;;;5010478;28;20316;-62
2022/04/23 03:11:41;;;;;;;17.13;10.85;;;;;;;;;;5027823;28;20073;-62
2022/04/23 03:14:07;;;;;;;13.73;10.73;;;;;;;;;;5027982;28;20145;-62
2022/04/23 03:16:33;;;;;;;17.42;10.65;;;;;;;;;;5027950;28;20050;-62
2022/04/23 03:19:00;;;;;;;15.27;10.20;;;;;;;;;;5027874;28;20042;-62
2022/04/23 03:21:26;;;;;;;15.13;10.63;;;;;;;;;;5027619;28;20041;-63
2022/04/23 03:23:52;;;;;;;18.02;10.63;;;;;;;;;;5027744;28;20084;-61
2022/04/23 03:26:18;;;;;;;12.90;8.38;;;;;;;;;;5027806;28;20041;-62
2022/04/23 03:28:44;;;;;;;10.93;7.07;;;;;;;;;;5027918;28;20038;-62
2022/04/23 03:31:11;;;;;;;11.93;8.55;;;;;;;;;;5027239;28;20084;-62
2022/04/23 03:33:37;;;;;;;10.27;7.30;;;;;;;;;;5027364;28;20042;-62
2022/04/23 03:36:03;;;;;;;11.52;8.70;;;;;;;;;;5027772;28;20080;-63
2022/04/23 03:38:31;;;;;;;13.57;7.72;;;;;;;;;;5027328;28;20046;-62
2022/04/23 03:40:58;;;;;;;15.18;10.25;;;;;;;;;;5027264;28;20125;-62
2022/04/23 03:43:25;;;;;;;11.23;8.75;;;;;;;;;;5027431;28;20061;-63
2022/04/23 03:45:52;;;;;;;13.87;10.40;;;;;;;;;;5009829;28;20051;-62
2022/04/23 03:48:18;;;;;;;12.05;9.45;;;;;;;;;;5027362;28;20348;-62
2022/04/23 03:50:45;;;;;;;13.13;9.05;;;;;;;;;;5009381;28;20050;-61
2022/04/23 03:53:11;;;;;;;17.67;9.10;;;;;;;;;;5027209;28;20041;-63
2022/04/23 03:55:37;;;;;;;15.30;9.60;;;;;;;;;;5027272;28;20128;-62
2022/04/23 03:58:03;;;;;;;12.68;9.10;;;;;;;;;;5027035;28;20053;-62
2022/04/23 04:00:30;;;;;;;12.70;9.93;;;;;;;;;;5026724;28;20046;-62
2022/04/23 04:02:57;;;;;;;16.83;9.48;;;;;;;;;;5026840;28;20128;-62
2022/04/23 04:05:24;;;;;;;13.82;9.60;;;;;;;;;;5027026;28;20057;-62
2022/04/23 04:07:50;;;;;;;12.45;8.73;;;;;;;;;;5026624;28;20050;-61
2022/04/23 04:10:17;;;;;;;11.55;9.07;;;;;;;;;;5025766;28;20093;-62
2022/04/23 04:12:44;;;;;;;12.27;8.75;;;;;;;;;;5026761;28;20056;-63
2022/04/23 04:15:11;;;;;;;11.95;9.65;;;;;;;;;;5026624;28;20050;-62
2022/04/23 04:17:38;;;;;;;11.55;8.38;;;;;;;;;;5026736;28;20092;-63
2022/04/23 04:20:04;;;;;;;13.75;8.88;;;;;;;;;;5026484;28;20042;-62
2022/04/23 04:22:30;;;;;;;18.67;8.13;;;;;;;;;;5026866;28;20074;-62
2022/04/23 04:24:57;;;;;;;13.82;9.75;;;;;;;;;;5026675;28;20046;-62
2022/04/23 04:27:23;;;;;;;14.50;10.30;;;;;;;;;;5026687;28;20101;-62
2022/04/23 04:29:49;;;;;;;16.83;10.73;;;;;;;;;;5026166;28;20131;-62
2022/04/23 04:32:16;;;;;;;11.57;8.38;;;;;;;;;;5025912;28;20057;-63
2022/04/23 04:34:42;;;;;;;11.57;7.93;;;;;;;;;;5026344;28;20061;-63
2022/04/23 04:37:11;;;;;;;12.77;9.35;;;;;;;;;;5026334;28;20053;-62
2022/04/23 04:39:38;;;;;;;12.95;9.30;;;;;;;;;;5026294;28;20054;-61
2022/04/23 04:42:05;;;;;;;14.93;10.13;;;;;;;;;;5026301;28;20041;-62
2022/04/23 04:44:31;;;;;;;15.27;11.15;;;;;;;;;;5005147;28;20054;-62
2022/04/23 04:46:57;;;;;;;9.70;7.57;;;;;;;;;;5006514;28;20072;-62
2022/04/23 04:49:23;;;;;;;11.88;9.50;;;;;;;;;;5006423;28;20521;-62
2022/04/23 04:51:50;;;;;;;15.68;11.40;;;;;;;;;;5021767;28;20046;-62
2022/04/23 04:54:21;;;;;;;12.10;8.77;;;;;;;;;;5023468;28;20057;-62
2022/04/23 04:56:47;;;;;;;12.73;9.70;;;;;;;;;;5026008;28;20583;-62
2022/04/23 04:59:13;;;;;;;14.48;10.43;;;;;;;;;;5025841;28;20054;-62
2022/04/23 05:01:39;;;;;;;11.40;7.70;;;;;;;;;;5026033;28;20046;-63
2022/04/23 05:04:06;;;;;;;13.07;9.40;;;;;;;;;;5025254;28;20129;-62
2022/04/23 05:06:32;;;;;;;15.75;10.15;;;;;;;;;;5025908;28;20041;-62
2022/04/23 05:08:58;;;;;;;13.95;9.65;;;;;;;;;;5025881;28;20045;-61
2022/04/23 05:11:24;;;;;;;14.05;10.13;;;;;;;;;;5008266;28;20050;-62
2022/04/23 05:13:51;;;;;;;14.40;10.00;;;;;;;;;;5025387;28;20057;-62
2022/04/23 05:16:17;;;;;;;11.95;7.70;;;;;;;;;;5008131;28;20042;-62
2022/04/23 05:18:43;;;;;;;13.73;8.05;;;;;;;;;;5025397;28;20056;-62
2022/04/23 05:21:09;;;;;;;10.50;9.27;;;;;;;;;;5025181;28;20041;-62
2022/04/23 05:23:35;;;;;;;13.63;9.10;;;;;;;;;;5025705;28;20177;-62
2022/04/23 05:26:03;;;;;;;10.48;7.75;;;;;;;;;;5025573;28;20100;-62
2022/04/23 05:28:29;;;;;;;12.52;9.70;;;;;;;;;;5025515;28;20121;-62
2022/04/23 05:30:55;;;;;;;12.57;9.73;;;;;;;;;;5024931;28;20068;-62
2022/04/23 05:33:21;;;;;;;9.05;6.53;;;;;;;;;;5025154;28;20046;-62
2022/04/23 05:35:47;;;;;;;14.27;8.55;;;;;;;;;;5025400;28;20049;-62
2022/04/23 05:38:13;;;;;;;10.80;7.55;;;;;;;;;;5025169;28;20058;-62
2022/04/23 05:40:39;;;;;;;12.70;9.43;;;;;;;;;;5025120;28;20052;-62
2022/04/23 05:43:06;;;;;;;8.50;5.53;;;;;;;;;;5025268;28;20510;-62
2022/04/23 05:45:32;;;;;;;11.38;8.38;;;;;;;;;;5025277;28;20070;-62
2022/04/23 05:47:58;;;;;;;9.45;7.68;;;;;;;;;;5025329;28;20126;-62
2022/04/23 05:50:24;;;;;;;10.40;6.82;;;;;;;;;;5024752;28;20049;-63
2022/04/23 05:52:52;;;;;;;7.97;6.78;;;;;;;;;;5025075;28;20046;-62
2022/04/23 05:55:18;;;;;;;8.98;7.30;;;;;;;;;;5025191;28;20109;-61
2022/04/23 05:57:44;;;;;;;12.38;8.25;;;;;;;;;;5024960;28;20064;-62
2022/04/23 06:00:11;;;;;;;9.02;7.45;;;;;;;;;;5024632;28;20486;-63
2022/04/23 06:02:38;;;;;;;13.17;8.27;;;;;;;;;;5024654;28;20046;-63
2022/04/23 06:05:04;;;;;;;9.27;7.72;;;;;;;;;;5024954;28;20037;-63
2022/04/23 06:07:30;;;;;;;10.75;8.93;;;;;;;;;;5025041;28;20116;-62
2022/04/23 06:09:56;;;;;;;11.88;8.15;;;;;;;;;;5024584;28;20056;-62
2022/04/23 06:12:23;;;;;;;11.38;8.07;;;;;;;;;;5024743;28;20125;-62
2022/04/23 06:14:49;;;;;;;9.80;7.18;;;;;;;;;;5024981;28;20101;-62
2022/04/23 06:17:15;;;;;;;10.90;7.47;;;;;;;;;;5024386;28;20054;-63
2022/04/23 06:19:42;;;;;;;11.85;8.60;;;;;;;;;;5005205;28;20501;-63
2022/04/23 06:22:09;;;;;;;7.85;6.28;;;;;;;;;;5005043;28;20072;-63
2022/04/23 06:24:35;;;;;;;8.32;5.95;;;;;;;;;;4987680;28;20106;-63
2022/04/23 06:27:02;;;;;;;13.45;8.30;;;;;;;;;;5016711;28;20302;-63
2022/04/23 06:29:28;;;;;;;14.40;8.00;;;;;;;;;;5024777;28;20053;-63
2022/04/23 06:31:54;;;;;;;13.82;7.35;;;;;;;;;;5007271;28;20052;-62
2022/04/23 06:34:20;;;;;;;11.50;8.48;;;;;;;;;;5028544;28;20038;-62
2022/04/23 06:36:46;;;;;;;8.75;7.00;;;;;;;;;;5028428;28;20490;-62
2022/04/23 06:39:12;;;;;;;13.02;9.13;;;;;;;;;;5024269;28;20069;-63
2022/04/23 06:41:38;;;;;;;11.88;8.52;;;;;;;;;;5028249;28;20050;-62
2022/04/23 06:44:05;;;;;;;14.60;9.95;;;;;;;;;;5028470;28;20129;-62
2022/04/23 06:46:31;;;;;;;9.02;7.38;;;;;;;;;;5027416;28;20049;-63
2022/04/23 06:48:59;;;;;;;11.85;9.05;;;;;;;;;;5028391;28;20589;-63
2022/04/23 06:51:26;;;;;;;8.57;7.07;;;;;;;;;;5014022;28;20050;-63
2022/04/23 06:53:52;;;;;;;12.50;7.70;;;;;;;;;;5027814;28;20049;-63
2022/04/23 06:56:18;;;;;;;13.82;8.95;;;;;;;;;;5023976;28;20060;-63
2022/04/23 06:58:46;;;;;;;10.27;7.60;;;;;;;;;;5035715;28;20069;-62
2022/04/23 07:01:12;;;;;;;;;;;;;;;;;;5036496;28;20046;-63
2022/04/23 07:03:38;;;;;;;9.68;7.47;;;;;;;;;;5010593;28;19972;-65
2022/04/23 07:06:04;;;;;;;11.90;8.95;;;;;;;;;;5016301;28;20073;-63
2022/04/23 07:08:30;;;;;;;11.27;8.23;;;;;;;;;;5028295;28;20045;-62
2022/04/23 07:10:58;;;;;;;12.43;8.15;;;;;;;;;;5026272;28;20044;-62
2022/04/23 07:13:25;;;;;;;10.18;7.72;;;;;;;;;;5026870;28;20057;-62
2022/04/23 07:15:51;;;;;;;10.18;9.05;;;;;;;;;;5027767;28;20046;-63
2022/04/23 07:18:17;;;;;;;9.65;8.35;;;;;;;;;;5027107;28;20493;-63
2022/04/23 07:20:43;;;;;;;13.75;7.80;;;;;;;;;;5025262;28;20042;-62
2022/04/23 07:25:54;;;;;;;12.25;8.63;;;;;;;;;;5027681;28;20046;-64
2022/04/23 07:28:20;;;;;;;11.05;7.75;;;;;;;;;;5027273;28;20561;-64
2022/04/23 07:30:47;;;;;;;9.88;7.03;;;;;;;;;;5008406;28;20037;-63
2022/04/23 07:38:46;;;;;;;8.23;6.80;;;;;;;;;;5027178;28;20449;-63
2022/04/23 07:41:12;;;;;;;11.10;7.22;;;;;;;;;;5009415;28;20066;-63
2022/04/23 07:43:39;;;;;;;9.55;8.52;;;;;;;;;;5009221;28;20114;-64
2022/04/23 07:46:05;;;;;;;7.97;7.18;;;;;;;;;;5025630;28;20049;-62
2022/04/23 07:48:32;;;;;;;11.40;6.95;;;;;;;;;;5023920;28;20093;-63
2022/04/23 07:50:58;;;;;;;9.88;7.20;;;;;;;;;;5027038;28;20050;-62
2022/04/23 07:53:24;;;;;;;11.13;7.55;;;;;;;;;;5027261;28;20125;-63
2022/04/23 07:55:51;;;;;;;9.32;8.32;;;;;;;;;;5026169;28;20128;-63
2022/04/23 07:58:17;;;;;;;10.57;8.63;;;;;;;;;;5009444;28;20056;-63
2022/04/23 08:00:43;;;;;;;8.63;7.72;;;;;;;;;;5026295;28;20042;-63
2022/04/23 08:03:09;;;;;;;11.95;8.23;;;;;;;;;;5007551;28;20481;-64
2022/04/23 08:05:36;;;;;;;10.95;9.30;;;;;;;;;;5024052;28;20073;-63
2022/04/23 08:08:03;;;;;;;8.30;6.07;;;;;;;;;;5023616;28;20037;-63
2022/04/23 08:10:29;;;;;;;12.00;7.33;;;;;;;;;;5015944;28;20046;-63
2022/04/23 08:12:55;;;;;;;8.55;6.50;;;;;;;;;;5024956;28;20072;-62
2022/04/23 08:15:22;;;;;;;8.80;6.55;;;;;;;;;;5023469;28;20088;-63
2022/04/23 08:17:48;;;;;;;10.10;7.80;;;;;;;;;;5023263;28;20042;-63
2022/04/23 08:20:14;;;;;;;7.95;5.95;;;;;;;;;;5026111;28;20148;-63
2022/04/23 08:22:41;;;;;;;8.23;7.40;;;;;;;;;;5019822;28;20397;-63
2022/04/23 08:25:07;;;;;;;8.50;6.88;;;;;;;;;;5025348;28;20042;-63
2022/04/23 08:27:46;;;;;;;10.50;8.32;;;;;;;;;;5025219;28;20046;-63
2022/04/23 08:32:58;;;;;;;8.23;7.13;;;;;;;;;;5022589;28;20271;-63
2022/04/23 08:35:24;;;;;;;12.98;7.68;;;;;;;;;;5018013;28;20045;-63
2022/04/23 08:37:50;;;;;;;10.27;8.63;;;;;;;;;;5006797;28;20132;-62
2022/04/23 08:40:16;;;;;;;12.63;7.68;;;;;;;;;;5009331;28;20050;-63
2022/04/23 08:42:42;;;;;;;9.10;7.72;;;;;;;;;;5020370;28;20478;-62
2022/04/23 08:45:10;;;;;;;10.18;8.00;;;;;;;;;;5021464;28;20097;-62
2022/04/23 08:47:37;;;;;;;11.57;8.60;;;;;;;;;;5023106;28;20048;-62
2022/04/23 08:50:05;;;;;;;9.57;8.23;;;;;;;;;;5002197;28;20048;-62
2022/04/23 08:52:32;;;;;;;8.00;7.20;;;;;;;;;;5022620;28;20053;-62
2022/04/23 08:55:03;;;;;;;11.90;7.22;;;;;;;;;;5021403;28;20146;-62
2022/04/23 08:57:29;;;;;;;13.10;9.07;;;;;;;;;;5021867;28;20073;-62
2022/04/23 08:59:58;;;;;;;8.32;6.95;;;;;;;;;;5007177;28;20287;-62
2022/04/23 09:02:26;;;;;;;12.93;8.23;;;;;;;;;;5004738;28;20042;-62
2022/04/23 09:04:53;;;;;;;8.27;7.22;;;;;;;;;;5017465;28;20170;-62
2022/04/23 09:07:20;;;;;;;;;;;;;;;;;;5007584;28;20045;-62
2022/04/23 09:09:50;;;;;;;8.95;6.65;;;;;;;;;;5018268;28;20076;-65
2022/04/23 09:12:19;;;;;;;11.60;8.02;;;;;;;;;;5017163;28;20049;-62
2022/04/23 09:14:46;;;;;;;11.90;7.97;;;;;;;;;;5004794;28;20053;-62
2022/04/23 09:25:39;;;;;;;12.10;8.52;;;;;;;;;;5023935;28;20050;-67
2022/04/23 09:28:28;;;;;;;8.15;7.32;;;;;;;;;;5008073;28;20052;-69
2022/04/23 09:30:55;;;;;;;8.20;7.35;;;;;;;;;;5006498;28;20057;-65
2022/04/23 09:33:28;;;;;;;8.60;7.13;;;;;;;;;;5019019;28;20038;-70
2022/04/23 09:35:54;;;;;;;8.60;6.10;;;;;;;;;;5007487;28;20046;-70
2022/04/23 09:38:21;;;;;;;10.32;8.45;;;;;;;;;;5025123;28;20050;-71
2022/04/23 09:40:51;;;;;;;8.82;7.07;;;;;;;;;;5020739;28;20545;-68
2022/04/23 09:43:24;;;;;;;10.13;7.05;;;;;;;;;;5023031;28;20050;-69
2022/04/23 09:45:59;;;;;;;11.18;8.68;;;;;;;;;;5021899;28;21282;-68
2022/04/23 09:48:25;;;;;;;10.70;8.18;;;;;;;;;;5008933;28;20045;-68
2022/04/23 09:50:52;;;;;;;10.75;8.98;;;;;;;;;;5005545;28;20092;-66
2022/04/23 09:53:19;;;;;;;12.15;8.07;;;;;;;;;;5024866;28;20042;-67
2022/04/23 09:55:45;;;;;;;11.77;7.40;;;;;;;;;;5025467;28;20119;-68
2022/04/23 09:58:13;;;;;;;10.15;7.38;;;;;;;;;;5022663;28;20045;-62
2022/04/23 10:00:40;;;;;;;9.73;6.32;;;;;;;;;;5021634;28;20074;-66
2022/04/23 10:03:07;;;;;;;9.38;7.25;;;;;;;;;;5005257;28;20050;-66
2022/04/23 10:05:45;;;;;;;10.47;7.57;;;;;;;;;;5023788;28;20069;-66
2022/04/23 10:08:12;;;;;;;9.68;6.13;;;;;;;;;;5010179;28;20039;-65
2022/04/23 10:10:52;;;;;;;10.88;7.30;;;;;;;;;;5012563;28;20069;-65
2022/04/23 10:13:19;;;;;;;7.15;5.28;;;;;;;;;;5022394;28;20060;-66
2022/04/23 10:15:46;;;;;;;10.10;5.70;;;;;;;;;;5023173;28;20050;-64
2022/04/23 10:18:12;;;;;;;9.07;6.05;;;;;;;;;;5019236;28;20561;-66
2022/04/23 10:20:40;;;;;;;11.25;7.13;;;;;;;;;;5022293;28;20080;-67
2022/04/23 10:23:08;;;;;;;;;;;;;;;;;;5003252;28;20081;-64
2022/04/23 10:25:42;;;;;;;7.60;6.18;;;;;;;;;;5037252;28;20012;-64
2022/04/23 10:28:09;;;;;;;8.38;6.60;;;;;;;;;;5006610;28;20050;-65
2022/04/23 10:30:35;;;;;;;7.43;5.70;;;;;;;;;;5023364;28;20049;-65
2022/04/23 10:33:37;;;;;;;8.27;7.05;;;;;;;;;;5013002;28;20042;-65
2022/04/23 10:36:10;;;;;;;7.32;5.88;;;;;;;;;;4962970;29;20047;-65
2022/04/23 10:38:42;;;;;;;8.65;5.90;;;;;;;;;;4959510;29;20047;-67
2022/04/23 10:41:09;;;;;;;7.57;5.47;;;;;;;;;;4945429;28;20043;-64
2022/04/23 10:43:35;;;;;;;9.30;6.25;;;;;;;;;;4959873;28;20071;-63
2022/04/23 10:46:01;;;;;;;8.32;6.20;;;;;;;;;;4961612;29;20047;-61
2022/04/23 10:48:28;;;;;;;6.47;5.75;;;;;;;;;;4971191;28;20046;-61
2022/04/23 10:51:00;;;;;;;9.60;5.15;;;;;;;;;;4950144;28;20052;-66
2022/04/23 10:53:48;;;;;;;9.70;6.53;;;;;;;;;;4938127;29;20063;-72
2022/04/23 10:56:15;;;;;;;6.70;5.93;;;;;;;;;;4951544;29;20115;-66
2022/04/23 10:58:41;;;;;;;6.63;4.97;;;;;;;;;;4947578;29;20066;-68
2022/04/23 11:01:21;;;;;;;7.93;4.85;;;;;;;;;;4944334;29;20456;-70
2022/04/23 11:04:10;;;;;;;5.95;5.03;;;;;;;;;;4944940;29;20059;-68
2022/04/23 11:12:18;;;;;;;12.82;6.10;;;;;;;;;;5006168;28;20057;-68
2022/04/23 11:14:45;;;;;;;7.60;5.15;;;;;;;;;;5022912;28;20041;-69
2022/04/23 11:17:17;;;;;;;6.43;4.38;;;;;;;;;;5022659;28;20077;-67
2022/04/23 11:19:45;;;;;;;7.93;5.18;;;;;;;;;;5007843;28;20046;-66
2022/04/23 11:22:12;;;;;;;7.65;4.78;;;;;;;;;;5002149;28;20053;-68
2022/04/23 11:24:39;;;;;;;6.93;4.90;;;;;;;;;;5027504;28;20045;-65
2022/04/23 11:27:05;;;;;;;8.27;5.15;;;;;;;;;;5021771;28;20038;-65
2022/04/23 11:29:31;;;;;;;6.50;4.57;;;;;;;;;;5007035;28;20222;-65
2022/04/23 11:31:58;;;;;;;7.22;4.90;;;;;;;;;;5016919;28;20516;-65
2022/04/23 11:34:24;;;;;;;6.90;4.45;;;;;;;;;;5004234;28;20073;-66
2022/04/23 11:36:51;;;;;;;7.45;4.68;;;;;;;;;;5026291;28;20502;-68
2022/04/23 11:39:18;;;;;;;6.97;4.90;;;;;;;;;;5013320;28;20106;-67
2022/04/23 11:41:48;;;;;;;7.13;4.75;;;;;;;;;;5008601;28;20057;-72
2022/04/23 11:44:45;;;;;;;4.47;3.92;;;;;;;;;;5022251;28;20075;-69
2022/04/23 11:47:12;;;;;;;5.90;4.00;;;;;;;;;;5023401;28;21792;-68
2022/04/23 11:49:38;;;;;;;5.68;4.80;;;;;;;;;;5024861;28;20038;-68
2022/04/23 11:52:05;;;;;;;4.95;3.47;;;;;;;;;;5022482;28;20386;-70
2022/04/23 11:54:35;;;;;;;8.95;4.40;;;;;;;;;;5025147;28;20053;-69
2022/04/23 11:57:01;;;;;;;6.60;3.55;;;;;;;;;;5022819;28;20120;-73
2022/04/23 11:59:38;;;;;;;4.00;3.65;;;;;;;;;;5018158;28;20108;-69
2022/04/23 12:02:23;;;;;;;4.60;3.33;;;;;;;;;;5017075;28;20043;-68
2022/04/23 12:05:00;;;;;;;4.78;4.25;;;;;;;;;;5013983;28;20038;-68
2022/04/23 12:07:27;;;;;;;6.53;4.60;;;;;;;;;;5016973;28;20050;-62
2022/04/23 12:09:54;;;;;;;7.32;4.13;;;;;;;;;;5015711;28;20387;-62
2022/04/23 12:12:21;;;;;;;4.95;3.85;;;;;;;;;;5009205;28;20161;-62
2022/04/23 12:14:48;;;;;;;9.38;4.50;;;;;;;;;;5015094;28;20042;-62
2022/04/23 12:17:37;;;;;;;6.47;3.85;;;;;;;;;;5021980;28;20041;-61
2022/04/23 12:20:10;;;;;;;7.15;4.03;;;;;;;;;;5021474;28;20141;-69
2022/04/23 12:22:36;;;;;;;5.03;3.65;;;;;;;;;;5025415;28;20486;-69
2022/04/23 12:25:15;;;;;;;5.22;3.88;;;;;;;;;;5023497;28;20118;-69
2022/04/23 12:28:00;;;;;;;6.10;4.15;;;;;;;;;;5018635;28;20037;-69
2022/04/23 12:41:57;;;;;;;8.32;3.95;;;;;;;;;;5017569;28;20049;-71
2022/04/23 12:44:24;;;;;;;4.15;3.28;;;;;;;;;;5026582;28;20054;-70
2022/04/23 12:46:53;;;;;;;5.63;3.13;;;;;;;;;;5023065;28;20044;-72
2022/04/23 12:49:22;;;;;;;4.38;3.20;;;;;;;;;;5024044;28;20415;-71
2022/04/23 12:51:55;;;;;;;5.63;3.25;;;;;;;;;;5003363;28;20058;-71
2022/04/23 12:54:22;;;;;;;3.05;2.75;;;;;;;;;;5025787;28;20069;-71
2022/04/23 12:56:48;;;;;;;3.70;2.90;;;;;;;;;;5024665;28;20113;-71
2022/04/23 12:59:15;;;;;;;6.53;3.25;;;;;;;;;;5022634;28;20077;-72
2022/04/23 13:01:41;;;;;;;7.22;3.70;;;;;;;;;;5014219;28;20038;-72
2022/04/23 13:04:11;;;;;;;5.32;3.42;;;;;;;;;;5024814;28;20085;-71
2022/04/23 13:09:23;;;;;;;4.07;3.30;;;;;;;;;;5023562;28;20049;-71
2022/04/23 13:11:50;;;;;;;4.72;3.28;;;;;;;;;;5021496;28;20080;-70
2022/04/23 13:14:16;;;;;;;7.63;3.78;;;;;;;;;;5023637;28;20045;-71
2022/04/23 13:16:44;;;;;;;5.20;3.45;;;;;;;;;;5006671;28;20045;-71
2022/04/23 13:19:10;;;;;;;5.22;3.58;;;;;;;;;;5021742;28;20050;-71
2022/04/23 13:21:36;;;;;;;3.95;3.03;;;;;;;;;;5007317;28;20050;-71
2022/04/23 13:24:03;;;;;;;5.68;3.25;;;;;;;;;;5022645;28;20183;-71
2022/04/23 13:26:30;;;;;;;4.32;3.90;;;;;;;;;;5012509;28;20421;-71
2022/04/23 13:28:57;;;;;;;3.92;3.17;;;;;;;;;;5016198;28;20046;-71
2022/04/23 13:31:23;;;;;;;2.70;2.50;;;;;;;;;;5020996;28;20052;-71
2022/04/23 13:33:49;;;;;;;5.25;2.35;;;;;;;;;;5018960;28;20478;-70
2022/04/23 13:36:15;;;;;;;4.53;3.05;;;;;;;;;;5006909;28;20049;-70
2022/04/23 13:38:41;;;;;;;6.90;2.90;;;;;;;;;;5017440;28;20080;-70
2022/04/23 13:41:13;;;;;;;10.88;3.42;;;;;;;;;;5006091;28;20132;-70
2022/04/23 13:43:39;;;;;;;5.50;3.30;;;;;;;;;;5019620;28;20129;-71
2022/04/23 13:46:06;;;;;;;3.85;2.65;;;;;;;;;;5018884;28;20048;-71
2022/04/23 13:48:32;;;;;;;6.85;2.80;;;;;;;;;;5017017;28;20041;-71
2022/04/23 13:50:58;;;;;;;2.70;2.22;;;;;;;;;;5006703;28;20084;-71
2022/04/23 13:53:24;;;;;;;5.70;2.65;;;;;;;;;;5024046;28;20098;-72
2022/04/23 13:55:51;;;;;;;3.80;3.10;;;;;;;;;;5004998;28;20108;-70
2022/04/23 13:58:17;;;;;;;5.28;3.03;;;;;;;;;;5019808;28;20129;-72
2022/04/23 14:00:43;;;;;;;2.60;2.13;;;;;;;;;;5017170;28;20037;-71
2022/04/23 14:11:24;;;;;;;4.70;2.75;;;;;;;;;;5002963;28;20058;-71
2022/04/23 14:13:51;;;;;;;5.45;2.70;;;;;;;;;;5019610;28;20049;-71
2022/04/23 14:16:17;;;;;;;5.47;2.85;;;;;;;;;;5021331;28;20073;-71
2022/04/23 14:18:43;;;;;;;2.95;2.00;;;;;;;;;;5019841;28;20054;-71
2022/04/23 14:21:09;;;;;;;3.75;2.50;;;;;;;;;;5003556;28;20105;-71
2022/04/23 14:23:36;;;;;;;5.05;2.60;;;;;;;;;;5022973;28;20117;-71
2022/04/23 14:26:02;;;;;;;3.72;2.70;;;;;;;;;;5022385;28;20046;-71
2022/04/23 14:28:28;;;;;;;2.60;2.35;;;;;;;;;;5019430;28;20092;-72
2022/04/23 14:30:54;;;;;;;3.30;2.38;;;;;;;;;;5004189;28;20108;-71
2022/04/23 14:33:20;;;;;;;3.15;2.42;;;;;;;;;;5003292;28;20510;-71
2022/04/23 14:35:46;;;;;;;3.70;2.50;;;;;;;;;;5022421;28;20100;-71
2022/04/23 14:38:12;;;;;;;2.22;1.85;;;;;;;;;;5022815;28;20065;-71
2022/04/23 14:40:39;;;;;;;4.28;2.58;;;;;;;;;;5021959;28;20046;-71
2022/04/23 14:43:05;;;;;;;4.05;2.00;;;;;;;;;;5019653;28;20061;-70
2022/04/23 14:45:33;;;;;;;6.37;2.30;;;;;;;;;;5017518;28;20053;-71
2022/04/23 14:48:00;;;;;;;2.42;1.80;;;;;;;;;;5018736;28;20080;-71
2022/04/23 14:50:26;;;;;;;9.30;2.33;;;;;;;;;;5004816;28;20452;-71
2022/04/23 14:53:10;;;;;;;3.05;2.20;;;;;;;;;;5022466;28;20061;-71
2022/04/23 14:55:36;;;;;;;4.18;2.30;;;;;;;;;;5007499;28;20079;-71
2022/04/23 14:58:02;;;;;;;5.13;2.97;;;;;;;;;;5026111;28;20098;-71
2022/04/23 15:00:29;;;;;;;4.65;2.80;;;;;;;;;;5025901;28;20061;-71
2022/04/23 15:02:57;;;;;;;4.30;2.40;;;;;;;;;;5017732;28;20085;-71
2022/04/23 15:05:23;;;;;;;2.58;2.38;;;;;;;;;;5023432;28;20301;-70
2022/04/23 15:07:49;;;;;;;2.63;2.30;;;;;;;;;;5004865;28;20046;-70
2022/04/23 15:10:15;;;;;;;3.72;2.35;;;;;;;;;;5019913;28;20084;-70
2022/04/23 15:12:41;;;;;;;2.60;2.08;;;;;;;;;;5023378;28;20545;-70
2022/04/23 15:15:08;;;;;;;2.63;1.88;;;;;;;;;;5025349;28;20046;-64
2022/04/23 15:17:34;;;;;;;3.00;2.70;;;;;;;;;;5022612;28;20495;-68
2022/04/23 15:20:00;;;;;;;5.50;2.30;;;;;;;;;;5023020;28;20041;-69
2022/04/23 15:22:26;;;;;;;4.78;2.33;;;;;;;;;;5005968;28;20080;-69
2022/04/23 15:24:55;;;;;;;4.65;2.35;;;;;;;;;;5016979;28;20042;-68